createdAt,value
2019-04-27T00:04:52.833Z,96205.97
2019-04-27T00:20:14.857Z,96205.10
2019-04-27T00:35:27.084Z,96179.84
2019-04-27T00:50:34.445Z,96162.61
2019-04-27T01:05:43.046Z,96156.02
2019-04-27T01:20:49.995Z,96152.24
2019-04-27T01:35:56.867Z,96154.50
2019-04-27T01:51:04.066Z,96158.28
2019-04-27T02:06:11.346Z,96141.31
2019-04-27T02:21:19.316Z,96158.73
2019-04-27T02:36:27.366Z,96168.69
2019-04-27T02:51:36.032Z,96170.52
2019-04-27T03:06:43.878Z,96165.58
2019-04-27T03:22:09.766Z,96168.90
2019-04-27T03:37:17.071Z,96172.30
2019-04-27T03:52:30.042Z,96182.75
2019-04-27T04:07:40.249Z,96203.88
2019-04-27T04:22:47.506Z,96215.22
2019-04-27T04:37:54.794Z,96224.53
2019-04-27T04:53:01.834Z,96238.38
2019-04-27T05:08:09.119Z,96262.20
2019-04-27T05:23:18.644Z,96278.20
2019-04-27T05:38:25.933Z,96293.21
2019-04-27T05:53:32.919Z,96292.80
2019-04-27T06:08:39.485Z,96291.44
2019-04-27T06:23:46.747Z,96297.95
2019-04-27T06:38:53.091Z,96307.17
2019-04-27T06:54:01.245Z,96316.00
2019-04-27T07:09:10.760Z,96314.80
2019-04-27T07:24:19.498Z,96323.47
2019-04-27T07:39:26.747Z,96317.28
2019-04-27T07:54:38.478Z,96327.20
2019-04-27T08:09:45.390Z,96327.59
2019-04-27T08:24:52.792Z,96331.79
2019-04-27T08:40:01.768Z,96331.28
2019-04-27T08:55:11.484Z,96349.84
2019-04-27T09:10:20.610Z,96345.52
2019-04-27T09:25:29.475Z,96340.58
2019-04-27T09:40:37.204Z,96369.92
2019-04-27T09:55:47.850Z,96383.13
2019-04-27T10:10:56.753Z,96387.15
2019-04-27T10:26:05.872Z,96386.66
2019-04-27T10:41:15.819Z,96383.26
2019-04-27T10:56:22.872Z,96374.64
2019-04-27T11:11:36.408Z,96373.93
2019-04-27T11:26:44.427Z,96378.24
2019-04-27T11:41:51.584Z,96381.12
2019-04-27T11:57:02.007Z,96386.52
2019-04-27T12:12:14.983Z,96380.34
2019-04-27T12:27:35.914Z,96371.89
2019-04-27T12:42:44.591Z,96387.05
2019-04-27T12:57:57.663Z,96367.84
2019-04-27T13:13:06.331Z,96367.55
2019-04-27T13:28:14.224Z,96357.56
2019-04-27T13:43:28.275Z,96356.30
2019-04-27T13:58:34.778Z,96362.08
2019-04-27T14:13:42.321Z,96358.91
2019-04-27T14:28:50.743Z,96361.68
2019-04-27T14:44:07.751Z,96359.30
2019-04-27T14:59:10.675Z,96355.28
2019-04-27T15:14:20.650Z,96338.81
2019-04-27T15:29:29.473Z,96330.04
2019-04-27T15:44:44.165Z,96311.84
2019-04-27T15:59:53.490Z,96327.99
2019-04-27T16:15:05.070Z,96304.07
2019-04-27T16:30:18.182Z,96306.72
2019-04-27T16:45:27.212Z,96333.69
2019-04-27T17:00:33.783Z,96346.30
2019-04-27T17:15:55.135Z,96342.91
2019-04-27T17:31:03.889Z,96358.69
2019-04-27T17:46:11.514Z,96362.77
2019-04-27T18:01:22.607Z,96343.55
2019-04-27T18:16:33.780Z,96359.83
2019-04-27T18:31:38.324Z,96397.41
2019-04-27T18:46:45.003Z,96402.17
2019-04-27T19:01:52.179Z,96423.59
2019-04-27T19:16:58.995Z,96417.38
2019-04-27T19:32:07.927Z,96408.80
2019-04-27T19:47:15.572Z,96407.57
2019-04-27T20:02:29.816Z,96396.35
2019-04-27T20:17:42.108Z,96393.84
2019-04-27T20:32:57.072Z,96390.63
2019-04-27T20:48:04.320Z,96377.78
2019-04-27T21:03:12.585Z,96363.44
2019-04-27T21:18:19.415Z,96369.16
2019-04-27T21:33:28.186Z,96371.23
2019-04-27T21:48:34.938Z,96369.99
2019-04-27T22:03:44.816Z,96377.16
2019-04-27T22:18:52.122Z,96381.47
2019-04-27T22:34:11.039Z,96378.91
2019-04-27T22:49:17.648Z,96365.06
2019-04-27T23:04:36.155Z,96367.56
2019-04-27T23:19:43.235Z,96364.14
2019-04-27T23:34:51.420Z,96366.72
2019-04-27T23:50:00.822Z,96359.91
